Time;durP1;ratioP1;P1;durP2;ratioP2;P2;SDS_P1;SDS_P2;PMS_P1;PMS_P2;Temp;Humidity;BMP_temperature;BMP_pressure;BME280_temperature;BME280_humidity;BME280_pressure;Samples;Min_cycle;Max_cycle;Signal;HPM_P1;HPM_P2
2022/09/19 00:01:19;;;;;;;15.90;1.80;;;12.20;99.90;;;;;;5092114;28;20054;-48
2022/09/19 00:03:50;;;;;;;15.35;2.40;;;11.50;99.90;;;;;;5091987;28;20055;-48
2022/09/19 00:06:17;;;;;;;18.02;2.05;;;11.70;99.90;;;;;;5091282;28;20048;-46
2022/09/19 00:08:45;;;;;;;14.10;2.40;;;11.60;99.90;;;;;;5091500;28;20437;-49
2022/09/19 00:11:12;;;;;;;12.70;1.90;;;11.60;99.90;;;;;;5091548;28;20245;-46
2022/09/19 00:13:41;;;;;;;20.67;2.75;;;11.30;99.90;;;;;;5091478;28;20587;-48
2022/09/19 00:16:07;;;;;;;16.30;2.13;;;11.60;99.90;;;;;;5091939;28;20130;-45
2022/09/19 00:18:33;;;;;;;22.90;2.95;;;11.50;99.90;;;;;;5092268;28;20399;-45
2022/09/19 00:21:00;;;;;;;16.85;3.15;;;12.80;99.90;;;;;;5092964;28;20036;-48
2022/09/19 00:26:12;;;;;;;15.68;2.60;;;12.90;99.90;;;;;;5092761;28;20052;-46
2022/09/19 00:28:38;;;;;;;17.35;2.83;;;11.50;99.90;;;;;;5091255;28;20522;-47
2022/09/19 00:31:05;;;;;;;18.00;2.45;;;11.60;99.90;;;;;;5091091;28;20035;-49
2022/09/19 00:33:33;;;;;;;13.82;2.50;;;11.50;99.90;;;;;;5091675;28;20044;-49
2022/09/19 00:36:03;;;;;;;17.20;2.58;;;12.40;99.90;;;;;;5096614;27;20043;-46
2022/09/19 00:38:30;;;;;;;21.90;2.97;;;11.70;99.90;;;;;;5095948;27;20051;-48
2022/09/19 00:40:56;;;;;;;23.48;2.70;;;11.50;99.90;;;;;;5094467;27;20314;-47
2022/09/19 00:43:25;;;;;;;15.73;2.38;;;11.90;99.90;;;;;;5094777;27;20286;-47
2022/09/19 00:45:51;;;;;;;16.00;2.33;;;11.60;99.90;;;;;;5095831;27;20051;-48
2022/09/19 00:48:21;;;;;;;22.77;3.00;;;13.30;99.90;;;;;;5095966;27;20068;-50
2022/09/19 00:50:52;;;;;;;18.65;2.50;;;11.50;99.90;;;;;;5096559;27;20078;-47
2022/09/19 00:53:22;;;;;;;22.33;2.77;;;11.80;99.90;;;;;;5095655;27;20043;-45
2022/09/19 00:55:55;;;;;;;21.85;2.78;;;11.70;99.90;;;;;;5095717;27;20075;-46
2022/09/19 00:58:27;;;;;;;;;;;13.40;99.90;;;;;;5095952;27;20070;-47
2022/09/19 01:00:53;;;;;;;17.65;2.33;;;11.70;99.90;;;;;;5096051;28;19924;-49
2022/09/19 01:03:19;;;;;;;22.65;2.97;;;13.00;99.90;;;;;;5095219;27;20534;-48
2022/09/19 01:06:23;;;;;;;22.98;2.53;;;11.70;99.90;;;;;;5095034;27;20130;-49
2022/09/19 01:09:01;;;;;;;24.23;4.03;;;11.70;99.90;;;;;;5097168;27;20548;-47
2022/09/19 01:11:56;;;;;;;21.60;3.75;;;11.80;99.90;;;;;;5094304;27;20042;-48
2022/09/19 01:14:39;;;;;;;23.00;3.28;;;11.80;99.90;;;;;;5094267;27;20027;-48
2022/09/19 01:17:31;;;;;;;21.85;3.38;;;11.70;99.90;;;;;;5095159;28;20082;-48
2022/09/19 01:20:09;;;;;;;25.88;2.42;;;11.70;99.90;;;;;;5094566;28;22105;-49
2022/09/19 01:22:43;;;;;;;21.70;2.60;;;11.70;99.90;;;;;;5094614;27;20039;-48
2022/09/19 01:25:31;;;;;;;25.65;3.97;;;12.70;99.90;;;;;;5093712;27;20100;-47
2022/09/19 01:28:01;;;;;;;24.63;3.40;;;11.60;99.90;;;;;;5093437;27;20075;-48
2022/09/19 01:30:27;;;;;;;18.88;2.42;;;13.30;99.90;;;;;;5094006;27;20051;-48
2022/09/19 01:33:17;;;;;;;28.23;3.05;;;11.70;99.90;;;;;;5095310;27;20051;-49
2022/09/19 01:35:50;;;;;;;18.13;2.53;;;11.70;99.90;;;;;;5094319;27;20044;-48
2022/09/19 01:38:26;;;;;;;23.35;3.42;;;11.70;99.90;;;;;;5093318;27;20571;-47
2022/09/19 01:40:54;;;;;;;23.13;2.50;;;13.70;99.90;;;;;;5093400;27;20101;-47
2022/09/19 01:43:20;;;;;;;16.27;2.47;;;12.40;99.90;;;;;;5093068;27;20059;-49
2022/09/19 01:45:47;;;;;;;17.08;2.35;;;13.30;99.90;;;;;;5093280;27;20229;-48
2022/09/19 01:48:26;;;;;;;17.08;3.03;;;11.50;99.90;;;;;;5093670;28;20035;-46
2022/09/19 01:51:10;;;;;;;21.63;2.95;;;11.50;99.90;;;;;;5094302;28;20069;-49
2022/09/19 01:53:36;;;;;;;16.38;2.80;;;11.60;99.90;;;;;;5093948;27;20496;-44
2022/09/19 01:56:19;;;;;;;18.52;3.10;;;11.80;99.90;;;;;;5094825;27;20035;-46
2022/09/19 01:58:48;;;;;;;22.20;3.10;;;11.70;99.90;;;;;;5093272;28;20032;-48
2022/09/19 02:01:38;;;;;;;22.83;2.88;;;11.60;99.90;;;;;;5093204;27;20047;-48
2022/09/19 02:04:10;;;;;;;14.88;2.67;;;11.60;99.90;;;;;;5093567;27;20080;-49
2022/09/19 02:06:48;;;;;;;19.17;2.40;;;11.60;99.90;;;;;;5093476;28;20048;-47
2022/09/19 02:09:26;;;;;;;19.05;2.28;;;11.60;99.90;;;;;;5094022;27;20396;-49
2022/09/19 02:11:53;;;;;;;13.23;1.80;;;11.70;99.90;;;;;;5093283;27;20043;-47
2022/09/19 02:14:24;;;;;;;10.20;1.48;;;11.80;99.90;;;;;;5094417;28;20537;-50
2022/09/19 02:17:02;;;;;;;15.48;1.83;;;11.60;99.90;;;;;;5094357;28;20039;-49
2022/09/19 02:19:33;;;;;;;11.20;2.03;;;11.60;99.90;;;;;;5093583;28;20131;-48
2022/09/19 02:22:08;;;;;;;11.90;2.03;;;11.60;99.90;;;;;;5093748;27;20357;-47
2022/09/19 02:24:38;;;;;;;8.15;1.17;;;11.50;99.90;;;;;;5093096;27;20449;-49
2022/09/19 02:27:09;;;;;;;14.82;2.90;;;11.60;99.90;;;;;;5092612;27;20040;-49
2022/09/19 02:29:39;;;;;;;13.18;2.03;;;11.60;99.90;;;;;;5092108;27;20360;-45
2022/09/19 02:32:07;;;;;;;10.07;1.95;;;11.50;99.90;;;;;;5091865;28;20058;-50
2022/09/19 02:34:34;;;;;;;11.82;2.00;;;11.50;99.90;;;;;;5093658;27;20906;-46
2022/09/19 02:37:18;;;;;;;10.05;1.55;;;11.50;99.90;;;;;;5093031;27;20050;-48
2022/09/19 02:39:50;;;;;;;15.23;2.03;;;11.50;99.90;;;;;;5092979;28;20043;-49
2022/09/19 02:42:16;;;;;;;14.13;1.40;;;11.60;99.90;;;;;;5093528;27;20704;-49
2022/09/19 02:45:27;;;;;;;13.13;1.80;;;11.50;99.90;;;;;;5092088;27;20845;-50
2022/09/19 02:48:03;;;;;;;8.23;1.40;;;11.30;99.90;;;;;;5093023;28;21281;-46
2022/09/19 02:50:59;;;;;;;10.63;1.77;;;11.30;99.90;;;;;;5092846;27;22050;-45
2022/09/19 02:53:30;;;;;;;11.52;1.92;;;11.30;99.90;;;;;;5081102;28;20056;-47
2022/09/19 02:55:59;;;;;;;14.63;2.17;;;10.40;99.90;;;;;;5092762;27;20043;-48
2022/09/19 02:58:30;;;;;;;13.45;2.05;;;11.40;99.90;;;;;;5090186;28;20495;-44
2022/09/19 03:01:03;;;;;;;20.67;2.40;;;11.40;99.90;;;;;;5093426;27;21031;-48
2022/09/19 03:06:48;;;;;;;14.57;2.00;;;13.30;99.90;;;;;;5092344;27;20065;-46
2022/09/19 03:09:17;;;;;;;15.95;2.33;;;11.50;99.90;;;;;;5092367;28;20043;-48
2022/09/19 03:11:49;;;;;;;12.75;2.17;;;11.80;99.90;;;;;;5092636;27;20040;-46
2022/09/19 03:14:16;;;;;;;15.40;1.95;;;11.60;99.90;;;;;;5092419;28;20040;-47
2022/09/19 03:16:47;;;;;;;17.10;2.15;;;11.60;99.90;;;;;;5092635;27;20040;-49
2022/09/19 03:19:13;;;;;;;13.40;2.65;;;11.70;99.90;;;;;;5093168;28;20101;-46
2022/09/19 03:21:41;;;;;;;17.90;1.88;;;12.20;99.90;;;;;;5093314;28;20755;-46
2022/09/19 03:24:08;;;;;;;16.52;2.35;;;11.50;99.90;;;;;;5092005;28;20035;-48
2022/09/19 03:26:36;;;;;;;17.95;3.05;;;11.50;99.90;;;;;;5091440;28;20054;-49
2022/09/19 03:29:08;;;;;;;14.68;2.28;;;13.60;99.90;;;;;;5092339;28;20373;-46
2022/09/19 03:31:34;;;;;;;15.48;2.58;;;11.90;99.90;;;;;;5092927;28;20031;-48
2022/09/19 03:34:00;;;;;;;21.45;3.00;;;11.50;99.90;;;;;;5093666;28;20614;-44
2022/09/19 03:36:29;;;;;;;16.33;2.13;;;11.70;99.90;;;;;;5093081;28;20040;-47
2022/09/19 03:38:55;;;;;;;20.38;2.33;;;11.80;99.90;;;;;;5093002;28;20054;-44
2022/09/19 03:41:22;;;;;;;20.00;3.03;;;11.70;99.90;;;;;;5092451;28;20036;-48
2022/09/19 03:43:48;;;;;;;19.65;2.33;;;11.80;99.90;;;;;;5092700;28;20062;-44
2022/09/19 03:46:17;;;;;;;16.92;2.72;;;12.90;99.90;;;;;;5092192;28;20068;-47
2022/09/19 03:48:44;;;;;;;13.73;2.05;;;11.70;99.90;;;;;;5092364;28;20115;-45
2022/09/19 03:51:11;;;;;;;12.93;1.98;;;11.70;99.90;;;;;;5092510;28;20126;-45
2022/09/19 03:53:37;;;;;;;15.13;2.45;;;11.70;99.90;;;;;;5091364;28;20043;-48
2022/09/19 03:56:04;;;;;;;21.38;2.33;;;11.60;99.90;;;;;;5092956;28;20042;-48
2022/09/19 03:58:30;;;;;;;19.48;2.42;;;11.60;99.90;;;;;;5091865;28;20075;-45
2022/09/19 04:00:59;;;;;;;15.77;2.20;;;11.60;99.90;;;;;;5091926;28;20096;-48
2022/09/19 04:03:25;;;;;;;15.40;2.22;;;11.50;99.90;;;;;;5091410;28;20143;-44
2022/09/19 04:05:51;;;;;;;16.30;2.05;;;11.50;99.90;;;;;;5092159;28;20501;-46
2022/09/19 04:08:18;;;;;;;22.15;2.83;;;11.60;99.90;;;;;;5092148;28;20040;-49
2022/09/19 04:10:44;;;;;;;18.92;2.33;;;11.70;99.90;;;;;;5095702;27;20096;-49
2022/09/19 04:13:10;;;;;;;17.80;2.67;;;11.50;99.90;;;;;;5095645;27;20122;-47
2022/09/19 04:15:36;;;;;;;19.27;2.65;;;11.70;99.90;;;;;;5094951;27;20062;-48
2022/09/19 04:18:03;;;;;;;21.05;2.50;;;11.40;99.90;;;;;;5095921;27;20051;-49
2022/09/19 04:20:30;;;;;;;20.73;2.55;;;11.50;99.90;;;;;;5095787;27;20678;-47
2022/09/19 04:23:00;;;;;;;15.23;2.80;;;11.60;99.90;;;;;;5096651;28;20039;-48
2022/09/19 04:25:32;;;;;;;15.07;2.50;;;11.70;99.90;;;;;;5096660;27;20045;-49
2022/09/19 04:28:02;;;;;;;18.75;2.45;;;11.60;99.90;;;;;;5095787;27;20043;-48
2022/09/19 04:30:28;;;;;;;14.23;2.30;;;11.50;99.90;;;;;;5095247;27;20066;-49
2022/09/19 04:32:54;;;;;;;14.93;2.05;;;11.60;99.90;;;;;;5095659;27;20035;-47
2022/09/19 04:35:20;;;;;;;17.02;3.55;;;11.60;99.90;;;;;;5096939;27;20881;-48
2022/09/19 04:37:46;;;;;;;19.40;2.38;;;11.40;99.90;;;;;;5095577;28;20032;-47
2022/09/19 04:40:12;;;;;;;13.65;2.42;;;11.60;99.90;;;;;;5095461;27;20036;-48
2022/09/19 04:42:38;;;;;;;15.07;2.85;;;11.60;99.90;;;;;;5095608;28;20031;-44
2022/09/19 04:45:07;;;;;;;17.85;2.67;;;11.80;99.90;;;;;;5096262;27;20130;-47
2022/09/19 04:47:33;;;;;;;15.38;3.08;;;11.80;99.90;;;;;;5095770;27;20399;-44
2022/09/19 04:49:59;;;;;;;13.43;1.85;;;11.70;99.90;;;;;;5096480;27;20562;-47
2022/09/19 04:52:26;;;;;;;17.10;1.85;;;11.60;99.90;;;;;;5095754;27;20044;-46
2022/09/19 04:54:54;;;;;;;17.33;3.38;;;12.00;99.90;;;;;;5094783;27;20079;-48
2022/09/19 04:57:20;;;;;;;14.70;2.17;;;11.60;99.90;;;;;;5094966;27;20397;-47
2022/09/19 04:59:46;;;;;;;21.73;2.47;;;11.70;99.90;;;;;;5095096;27;20135;-46
2022/09/19 05:02:12;;;;;;;19.50;2.58;;;11.60;99.90;;;;;;5094423;27;20041;-48
2022/09/19 05:04:41;;;;;;;17.80;2.28;;;12.90;99.90;;;;;;5095360;27;20419;-47
2022/09/19 05:07:07;;;;;;;15.68;2.35;;;11.60;99.90;;;;;;5094938;27;20046;-47
2022/09/19 05:09:32;;;;;;;20.83;3.28;;;11.50;99.90;;;;;;5073572;28;20035;-46
2022/09/19 05:11:58;;;;;;;16.60;2.05;;;11.60;99.90;;;;;;5092225;28;20315;-48
2022/09/19 05:14:26;;;;;;;13.85;1.73;;;12.00;99.90;;;;;;5095292;27;20039;-48
2022/09/19 05:16:52;;;;;;;16.95;2.38;;;11.70;99.90;;;;;;5094865;27;20075;-47
2022/09/19 05:19:21;;;;;;;19.42;2.35;;;11.70;99.90;;;;;;5094215;27;20763;-47
2022/09/19 05:21:48;;;;;;;14.82;1.85;;;11.60;99.90;;;;;;5094010;27;20144;-47
2022/09/19 05:24:15;;;;;;;20.95;2.95;;;12.00;99.90;;;;;;5092081;27;20431;-48
2022/09/19 05:26:40;;;;;;;14.35;1.88;;;11.50;99.90;;;;;;5094829;27;20085;-46
2022/09/19 05:29:08;;;;;;;16.85;3.08;;;11.60;99.90;;;;;;5092683;28;20318;-46
2022/09/19 05:31:35;;;;;;;9.43;1.50;;;11.30;99.90;;;;;;5092249;28;20040;-49
2022/09/19 05:34:02;;;;;;;14.13;2.08;;;12.30;99.90;;;;;;5094464;27;20047;-47
2022/09/19 05:36:30;;;;;;;17.00;2.47;;;11.50;99.90;;;;;;5094423;27;20119;-53
2022/09/19 05:38:57;;;;;;;18.00;2.25;;;11.50;99.90;;;;;;5093054;27;20105;-46
2022/09/19 05:41:22;;;;;;;17.00;2.53;;;11.50;99.90;;;;;;5092834;27;20122;-49
2022/09/19 05:43:48;;;;;;;17.13;2.90;;;11.30;99.90;;;;;;5093766;27;20556;-48
2022/09/19 05:46:14;;;;;;;13.15;1.88;;;11.50;99.90;;;;;;5094982;27;20130;-46
2022/09/19 05:48:40;;;;;;;16.20;2.40;;;11.40;99.90;;;;;;5094286;28;20504;-48
2022/09/19 05:51:06;;;;;;;12.15;2.00;;;11.40;99.90;;;;;;5094330;28;20042;-49
2022/09/19 05:56:15;;;;;;;18.75;2.95;;;9.80;99.90;;;;;;5094756;27;20601;-49
2022/09/19 05:58:41;;;;;;;19.25;2.33;;;11.70;99.90;;;;;;5093657;27;20040;-49
2022/09/19 06:01:10;;;;;;;15.98;2.35;;;11.60;99.90;;;;;;5093497;27;20039;-48
2022/09/19 06:03:36;;;;;;;20.30;1.85;;;11.40;99.90;;;;;;5093700;28;22228;-46
2022/09/19 06:06:11;;;;;;;16.30;2.00;;;11.50;99.90;;;;;;5094279;27;20099;-45
2022/09/19 06:08:38;;;;;;;18.45;2.55;;;11.40;99.90;;;;;;5094494;27;20042;-49
2022/09/19 06:11:04;;;;;;;14.02;2.47;;;11.30;99.90;;;;;;5093988;28;20049;-49
2022/09/19 06:16:14;;;;;;;15.00;1.98;;;11.20;99.90;;;;;;5092697;28;20645;-47
2022/09/19 06:18:40;;;;;;;14.35;1.95;;;11.40;99.90;;;;;;5093553;27;20054;-47
2022/09/19 06:21:06;;;;;;;16.13;2.15;;;11.60;99.90;;;;;;5093469;27;20495;-49
2022/09/19 06:23:32;;;;;;;19.02;2.17;;;12.60;99.90;;;;;;5092584;27;20499;-49
2022/09/19 06:25:58;;;;;;;14.05;2.17;;;11.60;99.90;;;;;;5091480;27;20930;-49
2022/09/19 06:28:23;;;;;;;17.95;3.63;;;12.30;99.90;;;;;;5092552;27;20039;-49
2022/09/19 06:30:49;;;;;;;22.05;2.42;;;13.20;99.90;;;;;;5092301;27;20096;-48
2022/09/19 06:33:15;;;;;;;21.52;2.35;;;11.70;99.90;;;;;;5092518;27;20039;-49
2022/09/19 06:35:41;;;;;;;15.20;2.05;;;11.80;99.90;;;;;;5093499;27;20039;-48
2022/09/19 06:38:07;;;;;;;16.13;2.38;;;11.80;99.90;;;;;;5092270;27;20043;-47
2022/09/19 06:40:36;;;;;;;15.65;2.30;;;11.90;99.90;;;;;;5092485;28;20408;-45
2022/09/19 06:43:06;;;;;;;20.88;2.50;;;12.00;99.90;;;;;;5092003;28;20055;-48
2022/09/19 06:45:40;;;;;;;14.60;2.78;;;11.90;99.90;;;;;;5092187;28;20142;-49
2022/09/19 06:48:09;;;;;;;20.50;2.20;;;12.10;99.90;;;;;;5091991;27;20055;-49
2022/09/19 06:50:35;;;;;;;17.27;2.08;;;12.20;99.90;;;;;;5092317;28;20108;-49
2022/09/19 06:53:01;;;;;;;18.05;3.10;;;11.90;99.90;;;;;;5093760;28;20214;-47
2022/09/19 06:55:28;;;;;;;20.20;3.00;;;12.30;99.90;;;;;;5093053;28;20253;-49
2022/09/19 06:57:56;;;;;;;14.63;2.42;;;12.30;99.90;;;;;;5090091;28;20530;-47
2022/09/19 07:00:24;;;;;;;14.77;2.20;;;11.90;99.90;;;;;;5091689;27;20039;-49
2022/09/19 07:02:54;;;;;;;12.52;1.95;;;12.10;99.90;;;;;;5090936;28;20454;-49
2022/09/19 07:05:20;;;;;;;15.07;1.98;;;12.00;99.90;;;;;;5090192;27;20295;-49
2022/09/19 07:07:46;;;;;;;14.68;2.20;;;12.00;99.90;;;;;;5090322;28;20130;-49
2022/09/19 07:10:12;;;;;;;15.02;3.88;;;14.00;99.90;;;;;;5091499;28;20040;-46
2022/09/19 07:12:37;;;;;;;27.35;10.63;;;12.10;99.90;;;;;;5092383;27;20039;-45
2022/09/19 07:15:03;;;;;;;16.95;3.10;;;14.20;99.90;;;;;;5093701;27;20047;-44
2022/09/19 07:17:29;;;;;;;17.83;2.50;;;12.00;99.90;;;;;;5091995;28;20063;-48
2022/09/19 07:19:55;;;;;;;18.30;2.42;;;11.90;99.90;;;;;;5092069;28;22062;-48
2022/09/19 07:22:22;;;;;;;13.23;2.60;;;12.10;99.90;;;;;;5093202;28;20039;-47
2022/09/19 07:24:49;;;;;;;12.48;2.20;;;13.10;99.90;;;;;;5091922;28;20044;-47
2022/09/19 07:27:15;;;;;;;16.77;2.30;;;12.00;99.90;;;;;;5091073;28;20467;-47
2022/09/19 07:29:40;;;;;;;21.85;2.58;;;12.40;99.90;;;;;;5092014;28;20166;-48
2022/09/19 07:32:06;;;;;;;15.65;2.40;;;12.70;99.90;;;;;;5093316;27;20081;-48
2022/09/19 07:34:32;;;;;;;14.63;2.30;;;13.50;99.90;;;;;;5091730;28;20123;-47
2022/09/19 07:36:58;;;;;;;14.40;2.13;;;13.90;99.90;;;;;;5092077;28;20036;-47
2022/09/19 07:39:24;;;;;;;16.30;2.13;;;16.00;99.90;;;;;;5092926;28;20082;-44
2022/09/19 07:41:50;;;;;;;17.92;2.63;;;14.30;99.90;;;;;;5091507;28;20130;-49
2022/09/19 07:44:16;;;;;;;16.92;2.40;;;14.60;99.90;;;;;;5092540;28;20051;-48
2022/09/19 07:47:26;;;;;;;14.05;2.40;;;15.30;97.10;;;;;;5095539;27;21038;-48
2022/09/19 07:49:27;;;;;;;14.07;1.92;;;16.10;91.50;;;;;;5095680;27;20400;-48
2022/09/19 07:51:54;;;;;;;12.70;2.20;;;16.50;78.80;;;;;;5095573;28;20058;-48
2022/09/19 07:54:19;;;;;;;14.25;2.05;;;16.30;57.00;;;;;;5096182;27;20074;-49
2022/09/19 07:56:47;;;;;;;13.00;1.80;;;14.20;53.80;;;;;;5096425;27;20408;-47
2022/09/19 07:59:13;;;;;;;14.50;2.30;;;15.90;44.00;;;;;;5096662;27;20337;-48
2022/09/19 08:01:39;;;;;;;12.13;1.92;;;15.60;50.30;;;;;;5096046;27;20032;-49
2022/09/19 08:04:04;;;;;;;13.52;2.10;;;15.30;51.10;;;;;;5095579;27;20478;-49
2022/09/19 08:06:30;;;;;;;13.27;1.90;;;15.00;50.10;;;;;;5095460;28;20043;-50
2022/09/19 08:08:56;;;;;;;10.23;2.25;;;14.90;59.60;;;;;;5096621;28;20507;-48
2022/09/19 08:11:22;;;;;;;13.00;2.22;;;14.80;61.70;;;;;;5096757;27;20490;-49
2022/09/19 08:13:48;;;;;;;13.40;2.03;;;14.50;63.10;;;;;;5094975;27;20122;-49
2022/09/19 08:16:14;;;;;;;19.00;3.42;;;14.50;69.30;;;;;;5096288;27;20043;-49
2022/09/19 08:18:40;;;;;;;17.00;2.58;;;14.60;66.40;;;;;;5095619;27;20473;-47
2022/09/19 08:21:06;;;;;;;15.85;2.50;;;14.70;59.90;;;;;;5096039;27;20039;-48
2022/09/19 08:23:32;;;;;;;10.18;1.88;;;14.60;49.40;;;;;;5097105;27;20469;-50
2022/09/19 08:26:02;;;;;;;13.60;2.05;;;14.80;41.10;;;;;;5095960;27;20106;-49
2022/09/19 08:28:30;;;;;;;12.32;2.22;;;15.00;42.20;;;;;;5096891;27;20046;-50
2022/09/19 08:31:00;;;;;;;11.13;1.77;;;15.10;37.20;;;;;;5094399;27;20043;-49
2022/09/19 08:33:26;;;;;;;15.93;2.40;;;15.00;31.40;;;;;;5095563;28;20509;-45
2022/09/19 08:35:54;;;;;;;10.07;2.22;;;14.80;22.00;;;;;;5095776;28;20040;-47
2022/09/19 08:38:21;;;;;;;16.95;2.88;;;14.70;18.50;;;;;;5095448;27;20046;-49
2022/09/19 08:40:52;;;;;;;13.10;1.95;;;15.00;24.90;;;;;;5095386;27;20527;-46
2022/09/19 08:43:20;;;;;;;13.20;2.40;;;15.10;25.30;;;;;;5095618;28;20032;-48
2022/09/19 08:46:24;;;;;;;9.77;1.80;;;15.10;23.60;;;;;;5095701;27;20338;-49
2022/09/19 08:49:02;;;;;;;13.48;2.22;;;15.10;21.90;;;;;;5095264;27;20043;-50
2022/09/19 08:51:55;;;;;;;17.02;2.63;;;15.20;22.60;;;;;;5095145;27;20112;-46
2022/09/19 08:54:32;;;;;;;14.55;2.42;;;15.10;28.80;;;;;;5095312;27;20047;-49
2022/09/19 08:56:59;;;;;;;16.80;2.65;;;15.00;29.70;;;;;;5095641;27;20052;-49
2022/09/19 08:59:30;;;;;;;16.70;2.58;;;14.70;35.00;;;;;;5094493;27;20071;-49
2022/09/19 09:02:07;;;;;;;14.23;2.30;;;14.70;40.00;;;;;;5094895;27;20491;-47
2022/09/19 09:04:35;;;;;;;17.70;2.65;;;14.30;42.90;;;;;;5094574;27;20848;-50
2022/09/19 09:07:27;;;;;;;14.07;1.90;;;14.30;47.50;;;;;;5095149;27;20032;-50
2022/09/19 09:10:19;;;;;;;15.93;2.42;;;14.40;45.30;;;;;;5094920;27;20048;-48
2022/09/19 09:13:04;;;;;;;11.45;2.30;;;14.50;56.20;;;;;;5095103;27;20044;-48
2022/09/19 09:15:53;;;;;;;16.27;3.03;;;14.70;49.60;;;;;;5094122;28;20032;-46
2022/09/19 09:18:34;;;;;;;15.52;2.78;;;14.70;50.00;;;;;;5093975;27;20094;-47
2022/09/19 09:21:35;;;;;;;9.63;2.30;;;14.90;58.10;;;;;;5093810;27;20570;-48
2022/09/19 09:24:22;;;;;;;13.63;1.88;;;15.00;40.50;;;;;;5094217;27;20067;-47
2022/09/19 09:26:52;;;;;;;17.08;2.42;;;15.20;46.50;;;;;;5094560;28;20035;-50
2022/09/19 09:29:27;;;;;;;11.65;1.70;;;14.90;28.40;;;;;;5094224;28;20120;-46
2022/09/19 09:32:30;;;;;;;15.20;1.83;;;14.90;24.00;;;;;;5094260;28;20082;-47
2022/09/19 09:35:12;;;;;;;14.88;2.40;;;14.80;2.00;;;;;;5094130;27;20046;-49
2022/09/19 09:37:46;;;;;;;11.20;2.10;;;14.60;7.40;;;;;;5093616;27;20061;-50
2022/09/19 09:43:20;;;;;;;12.75;2.00;;;14.50;43.60;;;;;;5095142;27;20460;-49
2022/09/19 09:45:49;;;;;;;16.38;2.58;;;14.80;53.60;;;;;;5095338;27;20085;-48
2022/09/19 09:48:29;;;;;;;15.60;2.80;;;14.50;59.30;;;;;;5095676;28;20407;-44
2022/09/19 09:51:19;;;;;;;16.90;2.67;;;14.80;61.50;;;;;;5094048;27;20059;-49
2022/09/19 09:53:54;;;;;;;17.02;2.22;;;14.90;53.00;;;;;;5095080;27;20082;-49
2022/09/19 09:56:32;;;;;;;13.05;2.40;;;15.00;60.20;;;;;;5093914;27;20066;-47
2022/09/19 10:03:33;;;;;;;9.48;1.92;;;14.90;60.40;;;;;;5095164;27;20573;-48
2022/09/19 10:04:53;;;;;;;13.05;2.50;;;14.80;99.90;;;;;;5093881;27;20048;-50
2022/09/19 10:07:37;;;;;;;11.85;2.40;;;14.90;43.70;;;;;;5093422;27;20039;-50
2022/09/19 10:10:11;;;;;;;9.38;2.13;;;15.00;38.60;;;;;;5093942;27;20044;-49
2022/09/19 10:12:58;;;;;;;12.15;1.98;;;15.10;26.70;;;;;;5094116;28;20096;-49
2022/09/19 10:15:25;;;;;;;8.50;2.05;;;15.00;28.80;;;;;;5093669;27;20142;-46
2022/09/19 10:18:05;;;;;;;13.43;1.88;;;14.90;32.80;;;;;;5092925;28;20039;-50
2022/09/19 10:20:38;;;;;;;15.25;2.13;;;14.80;39.00;;;;;;5094575;27;20051;-47
2022/09/19 10:23:13;;;;;;;11.95;2.70;;;15.20;48.50;;;;;;5094004;27;20644;-48
2022/09/19 10:25:38;;;;;;;10.63;2.00;;;15.10;48.00;;;;;;5092993;27;20400;-50
2022/09/19 10:28:37;;;;;;;12.50;2.35;;;15.10;39.70;;;;;;5093948;27;20051;-47
2022/09/19 10:31:04;;;;;;;9.80;2.38;;;15.20;33.80;;;;;;5092854;27;20047;-51
2022/09/19 10:33:41;;;;;;;12.73;2.33;;;14.90;39.70;;;;;;5092373;28;20372;-49
2022/09/19 10:36:20;;;;;;;16.55;3.03;;;15.20;62.10;;;;;;5091977;28;20045;-50
2022/09/19 10:38:59;;;;;;;20.92;2.70;;;15.40;47.40;;;;;;5093991;27;20743;-47
2022/09/19 10:41:27;;;;;;;17.23;2.72;;;15.40;57.60;;;;;;5092634;27;20062;-49
2022/09/19 10:43:57;;;;;;;14.63;2.80;;;15.40;59.10;;;;;;5092167;27;20051;-49
2022/09/19 10:46:35;;;;;;;20.80;3.33;;;15.80;38.50;;;;;;5092249;28;20057;-50
2022/09/19 10:49:05;;;;;;;18.27;2.70;;;16.20;33.80;;;;;;5092854;27;20734;-49
2022/09/19 10:51:43;;;;;;;11.88;2.42;;;16.50;31.40;;;;;;5092587;28;20105;-50
2022/09/19 10:54:11;;;;;;;14.70;2.58;;;16.30;99.90;;;;;;5093839;28;20047;-51
2022/09/19 10:56:41;;;;;;;15.02;3.33;;;16.20;28.20;;;;;;5093336;27;20054;-50
2022/09/19 10:59:12;;;;;;;14.00;3.65;;;15.60;99.90;;;;;;5092754;28;20050;-51
2022/09/19 11:01:39;;;;;;;11.82;2.20;;;15.20;99.90;;;;;;5092515;27;20050;-50
2022/09/19 11:04:23;;;;;;;13.02;2.83;;;14.90;99.90;;;;;;5091594;28;20039;-49
2022/09/19 11:07:13;;;;;;;13.18;2.17;;;14.60;26.90;;;;;;5092089;28;21243;-47
2022/09/19 11:09:39;;;;;;;16.65;3.17;;;14.60;52.40;;;;;;5093171;27;20044;-47
2022/09/19 11:12:15;;;;;;;17.38;2.65;;;15.00;61.30;;;;;;5092923;28;20096;-50
2022/09/19 11:14:46;;;;;;;14.68;2.40;;;15.30;53.00;;;;;;5091571;28;20500;-49
2022/09/19 11:17:40;;;;;;;14.07;2.22;;;15.80;44.70;;;;;;5092764;28;20071;-55
2022/09/19 11:20:30;;;;;;;13.88;2.72;;;15.80;99.90;;;;;;5091375;28;20043;-51
2022/09/19 11:23:37;;;;;;;15.40;1.98;;;15.80;99.90;;;;;;5091909;28;20059;-49
2022/09/19 11:26:21;;;;;;;13.40;2.08;;;15.50;99.90;;;;;;5092486;28;20415;-48
2022/09/19 11:29:06;;;;;;;12.45;2.10;;;15.60;99.90;;;;;;5092556;28;20051;-51
2022/09/19 11:32:25;;;;;;;15.63;2.33;;;16.00;99.90;;;;;;5091667;28;20201;-50
2022/09/19 11:34:51;;;;;;;13.05;1.85;;;16.20;99.90;;;;;;5031821;28;20090;-50
2022/09/19 11:37:25;;;;;;;12.82;1.95;;;16.40;99.90;;;;;;5087657;28;20052;-48
2022/09/19 11:40:06;;;;;;;9.85;1.80;;;16.20;99.90;;;;;;5092463;28;20048;-51
2022/09/19 11:42:37;;;;;;;11.75;2.05;;;16.30;99.90;;;;;;5091133;28;20050;-50
2022/09/19 11:45:16;;;;;;;16.55;2.50;;;16.20;99.90;;;;;;5091527;28;20434;-51
2022/09/19 11:48:06;;;;;;;9.65;1.90;;;16.00;99.90;;;;;;5090896;28;20396;-49
2022/09/19 11:50:59;;;;;;;17.02;2.58;;;15.70;99.90;;;;;;5092076;28;20043;-50
2022/09/19 11:54:07;;;;;;;14.57;2.53;;;15.60;99.90;;;;;;5092569;28;20084;-51
2022/09/19 11:57:17;;;;;;;12.95;2.20;;;15.80;99.90;;;;;;5086337;27;20111;-50
2022/09/19 11:59:42;;;;;;;14.07;2.15;;;15.60;99.90;;;;;;5070870;28;20124;-49
2022/09/19 12:02:27;;;;;;;12.52;1.85;;;15.50;99.90;;;;;;5091915;28;20047;-50
2022/09/19 12:05:17;;;;;;;9.45;1.98;;;16.00;99.90;;;;;;5090946;28;20051;-51
2022/09/19 12:07:56;;;;;;;16.48;2.63;;;16.30;99.90;;;;;;5091235;28;20044;-50
2022/09/19 12:10:48;;;;;;;12.65;1.98;;;16.10;99.90;;;;;;5091478;28;20050;-48
2022/09/19 12:13:24;;;;;;;14.68;2.13;;;16.20;99.90;;;;;;5091059;28;21157;-47
2022/09/19 12:15:58;;;;;;;15.63;2.38;;;16.20;99.90;;;;;;5091747;28;20048;-49
2022/09/19 12:18:41;;;;;;;14.30;2.03;;;16.10;99.90;;;;;;5091407;28;20046;-48
2022/09/19 12:21:09;;;;;;;18.20;2.60;;;16.00;99.90;;;;;;5092824;27;20050;-49
2022/09/19 12:27:01;;;;;;;13.13;2.47;;;15.70;99.90;;;;;;5092088;28;20287;-47
2022/09/19 12:29:41;;;;;;;14.00;2.03;;;15.90;99.90;;;;;;5089784;28;20446;-50
2022/09/19 12:32:25;;;;;;;16.00;2.60;;;16.10;99.90;;;;;;5094831;27;20089;-48
2022/09/19 12:34:55;;;;;;;16.30;2.50;;;16.30;99.90;;;;;;5095011;27;20372;-46
2022/09/19 12:38:02;;;;;;;15.20;2.30;;;16.20;99.90;;;;;;5095740;27;20047;-46
2022/09/19 12:40:39;;;;;;;11.52;2.30;;;16.00;99.90;;;;;;5096758;27;20128;-48
2022/09/19 12:43:23;;;;;;;12.20;2.38;;;16.10;99.90;;;;;;5094459;27;20047;-49
2022/09/19 12:46:09;;;;;;;18.77;2.95;;;15.60;99.90;;;;;;5094782;28;20475;-49
2022/09/19 12:48:47;;;;;;;16.33;2.60;;;15.30;99.90;;;;;;5094395;27;20526;-49
2022/09/19 12:51:21;;;;;;;13.93;2.50;;;15.20;99.90;;;;;;5095481;28;20435;-46
2022/09/19 12:54:05;;;;;;;11.13;2.33;;;14.90;99.90;;;;;;5094859;27;20067;-50
2022/09/19 12:56:36;;;;;;;17.58;2.78;;;15.00;99.90;;;;;;5095778;28;20047;-47
2022/09/19 12:59:27;;;;;;;18.58;2.65;;;14.80;99.90;;;;;;5094579;27;20474;-48
2022/09/19 13:02:18;;;;;;;17.20;2.47;;;14.90;99.90;;;;;;5094925;27;20044;-46
2022/09/19 13:04:58;;;;;;;12.60;2.97;;;14.90;99.90;;;;;;5094522;27;20833;-50
2022/09/19 13:07:45;;;;;;;11.88;2.40;;;14.90;99.90;;;;;;5093955;27;20062;-50
2022/09/19 13:10:25;;;;;;;11.30;2.17;;;14.70;99.90;;;;;;5093908;28;20529;-49
2022/09/19 13:12:55;;;;;;;7.45;1.45;;;14.90;99.90;;;;;;5093466;28;20048;-47
2022/09/19 13:15:34;;;;;;;10.60;2.13;;;15.10;99.90;;;;;;5093825;27;20409;-49
2022/09/19 13:23:55;;;;;;;16.30;2.55;;;15.20;99.90;;;;;;5070510;28;20105;-47
2022/09/19 13:26:32;;;;;;;10.20;1.90;;;15.30;99.90;;;;;;5086440;27;20058;-51
2022/09/19 13:28:59;;;;;;;11.40;1.85;;;15.10;99.90;;;;;;5093766;27;20039;-48
2022/09/19 13:31:56;;;;;;;13.02;1.75;;;15.20;99.90;;;;;;5094725;27;20059;-48
2022/09/19 13:34:39;;;;;;;10.85;1.75;;;15.30;99.90;;;;;;5094618;27;20046;-49